Terminal Aerodrome Forecast
Issued by NWS

Home | Current Version | Previous Version | Text Only | Print | Product List | Glossary On
Versions: 1 2 3 4 5 6 7 8 9 10 11 12 13 14 15 16 17 18 19 20 21 22 23 24 25 26
842
FTUS43 KLSX 201535 AAB
TAFSUS
TAF AMD
KSUS 201535Z 2016/2112 17005KT 5SM -TSRA SCT020CB BKN050
      TEMPO 2016/2017 27015G30KT 2SM TSRA OVC020CB
     FM201900 VRB04KT P6SM OVC050=

USA.gov is the U.S. government's official web portal to all federal, state and local government web resources and services.